All Spectrum Aviation - Van Nuys Airport - KVNY

HOME

Condor Squadron KVNY Webcam

Visit our Electronics Store

Condor Squadron Webcam - Van Nuys Airport - KVNY
Picture taken: Thu, 12 Dec 2019 23:13:24 -0800
YouTube Channel!    Latest Timelapse Movie    Full Size Image    Regular Size Image    

2019/12/13 06:51 KVNY 130651Z AUTO 09003KT 9SM CLR 15/10 A3015 RMK AO2 SLP205 T01500100

HOME

Condor Squadron KVNY Webcam

Visit our Electronics Store